Orbital elements of FENGYUN 1C DEB
| Launched | 9 May 1999 |
| Flight ended | – |
| Launch site | Taiyuan Space Center, PRC |
| Owner | People's Republic of China |
| NORAD ID | 30648 |
| Date fetched |
Epoch osculation |
Inc. [°] |
Ecc. | RA asc node [hr] |
Arg Peri. [°] |
Mean anom [°] |
Mean motion [rev/day] |
Abs. mag |
| Date fetched |
Epoch osculation |
Inc. [°] |
Ecc. | RA asc node [hr] |
Arg Peri. [°] |
Mean anom [°] |
Mean motion [rev/day] |
Abs. mag |
| 2026 May 07 17:58 | 2026 May 05 05:57:33 | 98.6383 | 0.00324 | 15.2233 | 55.7432 | 334.2525 | 14.50512 | – |
| 2026 May 06 17:57 | 2026 May 05 05:57:33 | 98.6383 | 0.00324 | 15.2233 | 55.7432 | 334.2525 | 14.50512 | – |
| 2026 May 05 17:57 | 2026 May 05 05:57:33 | 98.6383 | 0.00324 | 15.2233 | 55.7432 | 334.2525 | 14.50512 | – |
| 2026 May 04 17:57 | 2026 Apr 30 05:15:30 | 98.6379 | 0.00330 | 14.8794 | 70.8902 | 334.2525 | 14.50512 | – |
| 2026 May 03 17:57 | 2026 Apr 30 05:15:30 | 98.6379 | 0.00330 | 14.8794 | 70.8902 | 334.2525 | 14.50512 | – |
| 2026 May 02 17:57 | 2026 Apr 30 05:15:30 | 98.6379 | 0.00330 | 14.8794 | 70.8902 | 334.2525 | 14.50512 | – |
| 2026 May 01 17:56 | 2026 Apr 30 05:15:30 | 98.6379 | 0.00330 | 14.8794 | 70.8902 | 334.2525 | 14.50512 | – |
| 2026 Apr 30 17:56 | 2026 Apr 30 05:15:30 | 98.6379 | 0.00330 | 14.8794 | 70.8902 | 334.2525 | 14.50512 | – |
| 2026 Apr 29 17:57 | 2026 Apr 23 05:52:29 | 98.6368 | 0.00339 | 14.4025 | 91.4991 | 334.2525 | 14.50512 | – |
| 2026 Apr 28 17:56 | 2026 Apr 23 05:52:29 | 98.6368 | 0.00339 | 14.4025 | 91.4991 | 334.2525 | 14.50512 | – |
| 2026 Apr 27 17:58 | 2026 Apr 23 05:52:29 | 98.6368 | 0.00339 | 14.4025 | 91.4991 | 334.2525 | 14.50512 | – |
| 2026 Apr 26 17:58 | 2026 Apr 23 05:52:29 | 98.6368 | 0.00339 | 14.4025 | 91.4991 | 334.2525 | 14.50512 | – |
| 2026 Apr 25 17:58 | 2026 Apr 23 05:52:29 | 98.6368 | 0.00339 | 14.4025 | 91.4991 | 334.2525 | 14.50512 | – |
| 2026 Apr 24 17:59 | 2026 Apr 23 05:52:29 | 98.6368 | 0.00339 | 14.4025 | 91.4991 | 334.2525 | 14.50512 | – |
| 2026 Apr 23 17:57 | 2026 Apr 19 05:51:22 | 98.6372 | 0.00342 | 14.1290 | 103.1363 | 334.2525 | 14.50512 | – |
| 2026 Apr 22 17:57 | 2026 Apr 19 05:51:22 | 98.6372 | 0.00342 | 14.1290 | 103.1363 | 334.2525 | 14.50512 | – |
| 2026 Apr 21 17:57 | 2026 Apr 19 05:51:22 | 98.6372 | 0.00342 | 14.1290 | 103.1363 | 334.2525 | 14.50512 | – |
| 2026 Apr 20 17:57 | 2026 Apr 19 05:51:22 | 98.6372 | 0.00342 | 14.1290 | 103.1363 | 334.2525 | 14.50512 | – |
| 2026 Apr 19 17:58 | 2026 Apr 19 05:51:22 | 98.6372 | 0.00342 | 14.1290 | 103.1363 | 334.2525 | 14.50512 | – |
| 2026 Apr 18 17:56 | 2026 Apr 13 05:47:06 | 98.6363 | 0.00347 | 13.7186 | 120.3495 | 334.2525 | 14.50512 | – |
| 2026 Apr 16 17:57 | 2026 Apr 13 05:47:06 | 98.6363 | 0.00347 | 13.7186 | 120.3495 | 334.2525 | 14.50512 | – |
| 2026 Apr 14 17:57 | 2026 Apr 13 05:47:06 | 98.6363 | 0.00347 | 13.7186 | 120.3495 | 334.2525 | 14.50512 | – |
| 2026 Apr 13 17:57 | 2026 Apr 13 05:47:06 | 98.6363 | 0.00347 | 13.7186 | 120.3495 | 334.2525 | 14.50512 | – |
| 2026 Apr 12 17:57 | 2026 Apr 08 06:32:02 | 98.6360 | 0.00348 | 13.3790 | 134.5550 | 334.2525 | 14.50512 | – |
| 2026 Apr 11 17:57 | 2026 Apr 08 06:32:02 | 98.6360 | 0.00348 | 13.3790 | 134.5550 | 334.2525 | 14.50512 | – |
| 2026 Apr 10 17:58 | 2026 Apr 08 06:32:02 | 98.6360 | 0.00348 | 13.3790 | 134.5550 | 334.2525 | 14.50512 | – |